KAKO

Colorado Plains Regional Airport

Akron, Colorado, USA
METAR KAKO 160953Z AUTO 27009KT 10SM CLR 01/M11 A2977 RMK AO2 SLP069 T00111106
Observed Flight Rules
Dec-16 @ 09:53 UTC (an hour ago) Visual Flight Rules
Wind Visibility Clouds
270° at 9 knots 10 miles
  • Clear skies
Temperatures Readings
Current 1°C / 34°F
Dewpoint -11°C / 12°F
Humidity 41%
Altimeter 29.77" Hg
Pressure 1006.9 hPa
Elevation 1421
METAR KAKO 160953Z AUTO 27009KT 10SM CLR 01/M11 A2977 RMK AO2 SLP069 T00111106
Observed Flight Rules
Dec-16 @ 09:53 UTC
(an hour ago)
VFR
Wind Visibility
270° at 9 knots 10 miles
Clouds
  • Clear skies
Temperature Dewpoint
1°C / 34°F -11°C / 12°F
Humidity Altimeter Pressure
41% 29.77" Hg 1006.9 hPa